Time;durP1;ratioP1;P1;durP2;ratioP2;P2;SDS_P1;SDS_P2;PMS_P1;PMS_P2;Temp;Humidity;BMP_temperature;BMP_pressure;BME280_temperature;BME280_humidity;BME280_pressure;Samples;Min_cycle;Max_cycle;Signal;HPM_P1;HPM_P2
2022/03/26 00:01:30;;;;;;;25.37;18.13;;;6.40;91.80;;;;;;5067001;28;20189;-74
2022/03/26 00:03:55;;;;;;;22.83;17.07;;;6.40;92.20;;;;;;5063293;28;20615;-76
2022/03/26 00:06:21;;;;;;;24.57;16.73;;;6.30;92.00;;;;;;5063029;28;20615;-75
2022/03/26 00:08:49;;;;;;;26.00;16.77;;;6.30;92.30;;;;;;5065929;28;20223;-74
2022/03/26 00:11:18;;;;;;;23.67;16.27;;;6.30;92.90;;;;;;5069081;28;20266;-75
2022/03/26 00:13:43;;;;;;;25.40;16.27;;;6.30;92.30;;;;;;5061236;28;20686;-76
2022/03/26 00:16:10;;;;;;;21.77;17.07;;;6.30;92.10;;;;;;5069768;28;20191;-74
2022/03/26 00:18:35;;;;;;;24.87;16.07;;;6.30;93.10;;;;;;5063917;28;20171;-74
2022/03/26 00:21:01;;;;;;;22.47;15.93;;;6.30;93.30;;;;;;5059686;28;20194;-76
2022/03/26 00:23:26;;;;;;;22.03;15.80;;;6.30;93.30;;;;;;5059220;28;20179;-74
2022/03/26 00:25:52;;;;;;;23.10;16.33;;;6.30;92.70;;;;;;5056636;28;20215;-75
2022/03/26 00:28:18;;;;;;;21.03;15.57;;;6.30;92.20;;;;;;5066513;28;20176;-75
2022/03/26 00:30:44;;;;;;;21.87;15.63;;;6.30;92.10;;;;;;5064171;28;20709;-76
2022/03/26 00:33:10;;;;;;;22.27;15.23;;;6.30;92.20;;;;;;5063534;28;20195;-75
2022/03/26 00:35:36;;;;;;;20.03;15.07;;;6.30;92.10;;;;;;5062192;28;20234;-76
2022/03/26 00:38:02;;;;;;;18.97;15.70;;;6.30;92.00;;;;;;5076913;28;20187;-76
2022/03/26 00:40:27;;;;;;;20.23;15.27;;;6.20;92.50;;;;;;5058130;28;20186;-75
2022/03/26 00:42:53;;;;;;;22.47;14.83;;;6.10;93.00;;;;;;5062725;28;20237;-76
2022/03/26 00:45:19;;;;;;;25.37;16.63;;;6.00;92.60;;;;;;5065477;28;20208;-76
2022/03/26 00:47:45;;;;;;;19.13;14.10;;;6.00;93.20;;;;;;5062658;28;20180;-76
2022/03/26 00:50:10;;;;;;;26.33;16.17;;;6.00;93.20;;;;;;5059183;28;20188;-75
2022/03/26 00:52:37;;;;;;;22.43;15.77;;;6.00;93.50;;;;;;5057124;28;20211;-75
2022/03/26 00:55:03;;;;;;;22.60;16.00;;;5.90;93.30;;;;;;5066851;28;20230;-75
2022/03/26 00:57:29;;;;;;;25.60;15.03;;;5.90;94.10;;;;;;5061355;28;20620;-75
2022/03/26 00:59:55;;;;;;;23.43;15.47;;;5.80;94.30;;;;;;5061039;28;20263;-76
2022/03/26 01:02:20;;;;;;;21.90;15.20;;;5.80;94.40;;;;;;5053626;28;20183;-76
2022/03/26 01:04:46;;;;;;;19.67;15.33;;;5.70;94.60;;;;;;5059222;28;20284;-76
2022/03/26 01:07:11;;;;;;;22.00;15.60;;;5.70;94.70;;;;;;5063591;28;20187;-74
2022/03/26 01:09:37;;;;;;;20.33;14.53;;;5.60;95.10;;;;;;5060560;28;20187;-75
2022/03/26 01:12:03;;;;;;;22.47;14.60;;;5.50;94.90;;;;;;5061565;28;20203;-75
2022/03/26 01:14:29;;;;;;;23.67;14.50;;;5.60;94.70;;;;;;5067068;28;20320;-75
2022/03/26 01:16:55;;;;;;;20.03;14.53;;;5.50;94.90;;;;;;5062116;28;20181;-75
2022/03/26 01:19:20;;;;;;;19.00;14.07;;;5.50;95.30;;;;;;5071290;28;20182;-75
2022/03/26 01:21:46;;;;;;;22.63;15.40;;;5.40;95.70;;;;;;5069206;28;20248;-74
2022/03/26 01:24:12;;;;;;;20.37;14.30;;;5.40;95.30;;;;;;5059271;28;20190;-75
2022/03/26 01:26:37;;;;;;;18.90;13.57;;;5.50;95.40;;;;;;5058128;28;20270;-76
2022/03/26 01:29:03;;;;;;;18.43;13.20;;;5.40;95.60;;;;;;5081962;28;20637;-75
2022/03/26 01:31:28;;;;;;;19.57;13.70;;;5.50;94.90;;;;;;5079300;28;20214;-74
2022/03/26 01:33:54;;;;;;;21.73;14.90;;;5.60;94.40;;;;;;5053378;28;20190;-75
2022/03/26 01:36:22;;;;;;;19.07;13.57;;;5.60;94.50;;;;;;5065077;28;20199;-75
2022/03/26 01:38:47;;;;;;;23.90;14.10;;;5.60;94.30;;;;;;5068897;28;20606;-75
2022/03/26 01:41:13;;;;;;;18.70;12.47;;;5.70;93.80;;;;;;5069724;28;20266;-74
2022/03/26 01:43:40;;;;;;;22.83;14.10;;;5.80;93.40;;;;;;5072049;28;20683;-74
2022/03/26 01:46:06;;;;;;;21.77;13.20;;;5.80;93.80;;;;;;5067065;28;20191;-75
2022/03/26 01:48:32;;;;;;;19.63;13.97;;;5.70;94.20;;;;;;5069037;28;20220;-75
2022/03/26 01:51:14;;;;;;;20.23;14.50;;;5.50;94.60;;;;;;5067664;28;20274;-75
2022/03/26 01:53:43;;;;;;;17.23;12.53;;;5.40;94.70;;;;;;5073789;28;20654;-74
2022/03/26 01:56:10;;;;;;;17.83;13.20;;;5.30;94.90;;;;;;5066948;28;20286;-73
2022/03/26 01:58:35;;;;;;;18.63;13.60;;;5.30;95.00;;;;;;5063519;28;20178;-73
2022/03/26 02:01:01;;;;;;;19.50;13.90;;;5.30;95.10;;;;;;5064441;28;20183;-75
2022/03/26 02:03:26;;;;;;;17.70;13.43;;;5.40;95.20;;;;;;5060043;28;20226;-75
2022/03/26 02:05:52;;;;;;;20.87;13.83;;;5.40;95.20;;;;;;5069858;28;20207;-75
2022/03/26 02:08:18;;;;;;;20.87;13.23;;;5.50;95.10;;;;;;5073705;28;20237;-73
2022/03/26 02:10:43;;;;;;;19.83;13.57;;;5.40;95.40;;;;;;5073699;28;20186;-75
2022/03/26 02:13:09;;;;;;;22.63;13.67;;;5.30;96.00;;;;;;5072024;28;20329;-74
2022/03/26 02:15:37;;;;;;;22.37;15.13;;;5.20;96.10;;;;;;5067672;28;20614;-74
2022/03/26 02:18:03;;;;;;;19.63;13.70;;;5.10;96.30;;;;;;5069613;28;20176;-75
2022/03/26 02:20:30;;;;;;;19.93;13.60;;;5.00;96.80;;;;;;5059927;28;20650;-75
2022/03/26 02:22:56;;;;;;;18.13;13.47;;;5.00;97.00;;;;;;5070235;28;20183;-75
2022/03/26 02:25:22;;;;;;;22.43;13.30;;;5.00;97.20;;;;;;5068757;28;20235;-74
2022/03/26 02:27:48;;;;;;;17.03;12.60;;;4.90;97.40;;;;;;5064713;28;20215;-74
2022/03/26 02:30:13;;;;;;;19.60;13.53;;;5.00;97.60;;;;;;5060645;28;20210;-74
2022/03/26 02:32:39;;;;;;;19.37;13.23;;;5.00;97.60;;;;;;5063683;28;20237;-74
2022/03/26 02:35:06;;;;;;;18.60;13.40;;;5.00;97.50;;;;;;5058230;28;20286;-74
2022/03/26 02:37:32;;;;;;;19.67;13.90;;;5.10;97.60;;;;;;5068611;28;20179;-72
2022/03/26 02:39:58;;;;;;;17.57;13.03;;;5.20;97.40;;;;;;5065835;28;20187;-74
2022/03/26 02:42:24;;;;;;;21.17;14.20;;;5.20;97.40;;;;;;5058717;28;20227;-74
2022/03/26 02:44:50;;;;;;;18.13;13.53;;;5.20;97.60;;;;;;5064410;28;20231;-74
2022/03/26 02:47:16;;;;;;;21.00;13.03;;;5.00;98.30;;;;;;5059366;28;20566;-74
2022/03/26 02:49:41;;;;;;;20.10;14.80;;;4.90;98.90;;;;;;5069744;28;20179;-73
2022/03/26 02:52:07;;;;;;;19.73;14.03;;;4.70;99.40;;;;;;5059498;28;20295;-75
2022/03/26 02:54:35;;;;;;;22.73;14.63;;;4.70;99.90;;;;;;5070503;28;20195;-75
2022/03/26 02:57:01;;;;;;;19.10;13.63;;;4.60;99.90;;;;;;5069807;28;20769;-72
2022/03/26 02:59:28;;;;;;;19.97;14.50;;;4.60;99.90;;;;;;5063382;28;20179;-74
2022/03/26 03:01:53;;;;;;;25.20;15.03;;;4.50;99.90;;;;;;5064193;28;20234;-74
2022/03/26 03:04:22;;;;;;;18.13;14.17;;;4.50;99.90;;;;;;5059943;28;20179;-75
2022/03/26 03:06:49;;;;;;;19.60;13.33;;;4.50;99.90;;;;;;5061171;28;20180;-74
2022/03/26 03:09:14;;;;;;;22.23;13.60;;;4.50;99.90;;;;;;5055507;28;20187;-74
2022/03/26 03:11:40;;;;;;;20.73;13.00;;;4.60;99.90;;;;;;5063612;28;20662;-75
2022/03/26 03:14:07;;;;;;;20.57;14.00;;;4.60;99.90;;;;;;5064948;28;20183;-75
2022/03/26 03:16:33;;;;;;;18.23;13.07;;;4.60;99.90;;;;;;5072524;28;20209;-75
2022/03/26 03:18:59;;;;;;;19.73;14.13;;;4.50;99.90;;;;;;5063339;28;20190;-74
2022/03/26 03:21:24;;;;;;;20.97;14.73;;;4.40;99.90;;;;;;5065949;28;20179;-74
2022/03/26 03:23:50;;;;;;;21.43;14.13;;;4.40;99.90;;;;;;5067036;28;20263;-75
2022/03/26 03:26:16;;;;;;;19.07;13.93;;;4.30;99.90;;;;;;5061929;28;20580;-75
2022/03/26 03:28:42;;;;;;;22.70;14.13;;;4.30;99.90;;;;;;5059624;28;20171;-75
2022/03/26 03:31:08;;;;;;;20.07;14.97;;;4.40;99.90;;;;;;5066884;28;20554;-74
2022/03/26 03:33:34;;;;;;;21.00;14.83;;;4.40;99.90;;;;;;5063169;28;20200;-74
2022/03/26 03:36:00;;;;;;;23.77;14.30;;;4.50;99.90;;;;;;5067991;28;20538;-74
2022/03/26 03:38:26;;;;;;;19.13;13.20;;;4.60;99.90;;;;;;5068539;28;20187;-74
2022/03/26 03:40:52;;;;;;;24.30;15.27;;;4.60;99.90;;;;;;5058436;28;20172;-74
2022/03/26 03:43:17;;;;;;;21.83;15.13;;;4.40;99.90;;;;;;5060724;28;20610;-74
2022/03/26 03:45:43;;;;;;;22.27;14.70;;;4.30;99.90;;;;;;5063751;28;20221;-73
2022/03/26 03:48:09;;;;;;;25.47;14.40;;;4.20;99.90;;;;;;5072234;28;20202;-73
2022/03/26 03:50:35;;;;;;;21.53;16.13;;;4.10;99.90;;;;;;5066519;28;20217;-73
2022/03/26 03:53:02;;;;;;;24.43;14.73;;;4.00;99.90;;;;;;5062420;28;20206;-74
2022/03/26 03:55:28;;;;;;;22.87;15.47;;;4.00;99.90;;;;;;5063969;28;20220;-75
2022/03/26 03:57:54;;;;;;;21.07;15.13;;;4.00;99.90;;;;;;5063908;28;20203;-75
2022/03/26 04:00:20;;;;;;;20.43;14.87;;;3.90;99.90;;;;;;5060517;28;20191;-75
2022/03/26 04:02:46;;;;;;;17.13;13.50;;;3.90;99.90;;;;;;5061082;28;20189;-74
2022/03/26 04:05:13;;;;;;;20.50;13.50;;;3.80;99.90;;;;;;5056162;28;20199;-71
2022/03/26 04:07:46;;;;;;;21.83;15.80;;;3.80;99.90;;;;;;5061831;28;20244;-75
2022/03/26 04:10:12;;;;;;;20.27;14.50;;;3.70;99.90;;;;;;5067568;28;20194;-74
2022/03/26 04:12:40;;;;;;;19.23;15.43;;;3.70;99.90;;;;;;5072264;28;20797;-74
2022/03/26 04:15:09;;;;;;;23.23;15.60;;;3.70;99.90;;;;;;5071033;28;20196;-74
2022/03/26 04:17:35;;;;;;;22.00;15.50;;;3.60;99.90;;;;;;5067892;28;20579;-74
2022/03/26 04:20:03;;;;;;;25.53;15.50;;;3.60;99.90;;;;;;5063832;28;20186;-74
2022/03/26 04:22:28;;;;;;;21.70;15.40;;;3.60;99.90;;;;;;5073127;28;20183;-74
2022/03/26 04:24:54;;;;;;;24.73;15.63;;;3.50;99.90;;;;;;5061494;28;20195;-73
2022/03/26 04:27:20;;;;;;;23.80;15.27;;;3.50;99.90;;;;;;5058242;28;20187;-75
2022/03/26 04:29:45;;;;;;;22.43;15.30;;;3.50;99.90;;;;;;5063225;28;20664;-73
2022/03/26 04:32:11;;;;;;;21.37;14.77;;;3.50;99.90;;;;;;5057807;28;20231;-74
2022/03/26 04:34:38;;;;;;;22.67;15.30;;;3.50;99.90;;;;;;5058696;28;20647;-75
2022/03/26 04:37:05;;;;;;;21.07;15.13;;;3.50;99.90;;;;;;5055903;28;20179;-75
2022/03/26 04:39:30;;;;;;;20.80;14.33;;;3.50;99.90;;;;;;5058574;28;20245;-74
2022/03/26 04:41:56;;;;;;;24.80;16.20;;;3.50;99.90;;;;;;5056905;28;20258;-73
2022/03/26 04:44:22;;;;;;;21.43;15.70;;;3.50;99.90;;;;;;5055987;28;20196;-76
2022/03/26 04:46:47;;;;;;;23.93;14.90;;;3.50;99.90;;;;;;5056089;28;20638;-75
2022/03/26 04:49:13;;;;;;;29.30;16.23;;;3.50;99.90;;;;;;5054986;28;20544;-75
2022/03/26 04:51:39;;;;;;;23.40;16.60;;;3.40;99.90;;;;;;5057418;28;20203;-75
2022/03/26 04:54:04;;;;;;;23.23;14.97;;;3.40;99.90;;;;;;5058348;28;20566;-73
2022/03/26 04:56:30;;;;;;;20.77;15.20;;;3.40;99.90;;;;;;5057234;28;20671;-74
2022/03/26 04:58:56;;;;;;;19.90;14.83;;;3.40;99.90;;;;;;5057077;28;20203;-75
2022/03/26 05:01:22;;;;;;;24.87;15.33;;;3.40;99.90;;;;;;5055268;28;20186;-75
2022/03/26 05:03:48;;;;;;;22.37;15.13;;;3.40;99.90;;;;;;5061876;28;20209;-73
2022/03/26 05:06:14;;;;;;;21.73;17.20;;;3.40;99.90;;;;;;5057122;28;20195;-75
2022/03/26 05:08:40;;;;;;;21.57;16.37;;;3.40;99.90;;;;;;5064296;28;20665;-74
2022/03/26 05:11:05;;;;;;;26.40;16.47;;;3.40;99.90;;;;;;5065646;28;20184;-74
2022/03/26 05:13:31;;;;;;;25.87;16.87;;;3.40;99.90;;;;;;5065640;28;20215;-74
2022/03/26 05:15:57;;;;;;;20.70;16.40;;;3.40;99.90;;;;;;5067294;28;20634;-74
2022/03/26 05:18:23;;;;;;;24.27;17.63;;;3.40;99.90;;;;;;5063568;28;20181;-74
2022/03/26 05:20:48;;;;;;;22.37;16.40;;;3.40;99.90;;;;;;5082353;28;20553;-74
2022/03/26 05:23:14;;;;;;;25.17;17.83;;;3.40;99.90;;;;;;5065002;28;20187;-74
2022/03/26 05:25:40;;;;;;;26.63;17.60;;;3.50;99.90;;;;;;5074396;28;20627;-74
2022/03/26 05:28:05;;;;;;;26.90;18.63;;;3.50;99.90;;;;;;5059102;28;20175;-74
2022/03/26 05:30:31;;;;;;;23.10;16.93;;;3.60;99.90;;;;;;5062587;28;20313;-74
2022/03/26 05:32:57;;;;;;;21.73;16.53;;;3.70;99.90;;;;;;5059132;28;20286;-74
2022/03/26 05:35:23;;;;;;;26.73;17.57;;;3.70;99.90;;;;;;5057656;28;20204;-74
2022/03/26 05:37:50;;;;;;;24.60;17.47;;;3.80;99.90;;;;;;5063945;28;20231;-75
2022/03/26 05:40:18;;;;;;;26.73;17.77;;;3.90;99.90;;;;;;5058164;28;20304;-73
2022/03/26 05:42:46;;;;;;;27.73;17.47;;;4.00;99.90;;;;;;5060035;28;20267;-74
2022/03/26 05:45:12;;;;;;;26.63;16.43;;;3.90;99.90;;;;;;5065108;28;20207;-74
2022/03/26 05:47:38;;;;;;;24.57;16.00;;;4.00;99.90;;;;;;5064604;28;20184;-74
2022/03/26 05:50:06;;;;;;;27.63;17.07;;;4.10;99.90;;;;;;5062473;28;20191;-74
2022/03/26 05:52:32;;;;;;;25.33;17.30;;;4.20;99.90;;;;;;5067194;28;20215;-74
2022/03/26 05:54:57;;;;;;;27.87;17.27;;;4.20;99.90;;;;;;5068912;28;20206;-74
2022/03/26 05:57:23;;;;;;;24.13;16.60;;;4.40;99.90;;;;;;5067609;28;20653;-75
2022/03/26 05:59:49;;;;;;;23.33;15.90;;;4.40;99.90;;;;;;5066169;28;20186;-75
2022/03/26 06:02:15;;;;;;;21.40;15.90;;;4.50;99.90;;;;;;5065299;28;20181;-74
2022/03/26 06:04:42;;;;;;;22.23;16.20;;;4.70;99.90;;;;;;5062542;28;20199;-75
2022/03/26 06:07:08;;;;;;;24.80;16.20;;;4.70;99.90;;;;;;5066507;28;20205;-75
2022/03/26 06:09:35;;;;;;;21.00;15.17;;;4.80;99.90;;;;;;5077451;28;20570;-74
2022/03/26 06:12:01;;;;;;;20.13;16.07;;;4.90;99.90;;;;;;5068092;28;20675;-75
2022/03/26 06:14:26;;;;;;;24.53;15.73;;;5.00;99.90;;;;;;5062676;28;20256;-74
2022/03/26 06:16:52;;;;;;;22.67;16.10;;;5.00;99.90;;;;;;5055806;28;20168;-73
2022/03/26 06:19:18;;;;;;;22.70;15.60;;;5.10;99.90;;;;;;5052033;28;20536;-73
2022/03/26 06:21:44;;;;;;;24.00;16.10;;;5.10;99.90;;;;;;5059649;28;20180;-74
2022/03/26 06:24:10;;;;;;;21.10;16.23;;;5.20;99.90;;;;;;5063110;28;20630;-74
2022/03/26 06:26:37;;;;;;;22.07;16.30;;;5.30;99.90;;;;;;5071228;28;20194;-74
2022/03/26 06:29:04;;;;;;;20.83;15.73;;;5.40;99.90;;;;;;5067814;28;20673;-71
2022/03/26 06:31:30;;;;;;;23.70;17.53;;;5.40;99.90;;;;;;5069897;28;20646;-72
2022/03/26 06:33:55;;;;;;;21.23;16.93;;;5.50;99.90;;;;;;5071159;28;20175;-72
2022/03/26 06:36:22;;;;;;;25.83;16.97;;;5.50;99.90;;;;;;5069808;28;20229;-72
2022/03/26 06:38:48;;;;;;;25.70;16.53;;;5.60;99.90;;;;;;5066340;28;20182;-73
2022/03/26 06:41:14;;;;;;;23.50;16.77;;;5.70;99.90;;;;;;5069909;28;20182;-72
2022/03/26 06:43:41;;;;;;;25.60;17.63;;;5.90;99.90;;;;;;5067707;28;20214;-73
2022/03/26 06:46:07;;;;;;;24.00;16.80;;;6.00;99.90;;;;;;5067851;28;20634;-73
2022/03/26 06:48:33;;;;;;;24.27;16.87;;;6.00;99.90;;;;;;5064588;28;20211;-73
2022/03/26 06:51:01;;;;;;;24.03;17.73;;;6.10;99.90;;;;;;5063746;28;20192;-73
2022/03/26 06:53:28;;;;;;;23.53;17.23;;;6.20;99.90;;;;;;5064908;28;20295;-73
2022/03/26 06:55:53;;;;;;;25.33;17.93;;;6.30;99.90;;;;;;5069089;28;20229;-73
2022/03/26 06:58:19;;;;;;;26.53;18.17;;;6.40;99.90;;;;;;5069204;28;20175;-74
2022/03/26 07:00:44;;;;;;;23.83;18.57;;;6.40;99.90;;;;;;5065224;28;20190;-74
2022/03/26 07:03:10;;;;;;;26.63;17.97;;;6.30;99.90;;;;;;5067945;28;20270;-74
2022/03/26 07:05:37;;;;;;;25.80;17.87;;;6.30;99.90;;;;;;5066617;28;20282;-73
2022/03/26 07:08:03;;;;;;;21.57;17.50;;;6.30;99.90;;;;;;5066747;28;20275;-73
2022/03/26 07:10:29;;;;;;;22.30;17.07;;;6.30;99.90;;;;;;5071856;28;20758;-73
2022/03/26 07:12:54;;;;;;;26.00;19.17;;;6.40;99.90;;;;;;5059328;28;20196;-73
2022/03/26 07:15:20;;;;;;;27.17;18.00;;;6.50;99.90;;;;;;5063376;28;20686;-71
2022/03/26 07:17:45;;;;;;;25.93;18.07;;;6.60;99.90;;;;;;5066345;28;20210;-73
2022/03/26 07:20:12;;;;;;;22.37;16.67;;;6.70;99.90;;;;;;5062801;28;20186;-73
2022/03/26 07:22:38;;;;;;;24.83;17.63;;;6.80;99.90;;;;;;5068480;28;20258;-74
2022/03/26 07:25:05;;;;;;;26.90;18.70;;;7.00;99.90;;;;;;5059813;28;20214;-73
2022/03/26 07:27:31;;;;;;;24.47;18.53;;;7.10;99.90;;;;;;5073058;28;20630;-74
2022/03/26 07:29:57;;;;;;;25.47;17.93;;;7.20;99.90;;;;;;5070342;28;20230;-74
2022/03/26 07:32:23;;;;;;;25.80;16.80;;;7.30;99.90;;;;;;5065852;28;20300;-75
2022/03/26 07:34:48;;;;;;;24.23;17.27;;;7.50;99.90;;;;;;5071565;28;20199;-74
2022/03/26 07:37:14;;;;;;;27.00;17.80;;;7.60;99.90;;;;;;5063829;28;20197;-73
2022/03/26 07:39:40;;;;;;;28.15;18.27;;;7.70;99.90;;;;;;5075977;28;20171;-72
2022/03/26 07:42:07;;;;;;;25.67;18.67;;;7.80;99.90;;;;;;5060772;28;20661;-72
2022/03/26 07:44:33;;;;;;;21.67;17.35;;;8.00;99.90;;;;;;5064333;28;20231;-73
2022/03/26 07:46:58;;;;;;;25.02;18.13;;;8.10;99.90;;;;;;5063680;28;20737;-73
2022/03/26 07:49:24;;;;;;;25.48;18.17;;;8.30;99.90;;;;;;5068091;28;20209;-72
2022/03/26 07:51:50;;;;;;;26.40;17.27;;;8.40;99.90;;;;;;5066236;28;20234;-72
2022/03/26 07:54:15;;;;;;;27.17;18.35;;;8.40;99.90;;;;;;5062324;28;20183;-73
2022/03/26 07:56:41;;;;;;;23.55;18.00;;;8.50;99.90;;;;;;5065861;28;20176;-73
2022/03/26 07:59:07;;;;;;;23.40;18.25;;;8.40;99.90;;;;;;5063880;28;20172;-73
2022/03/26 08:01:32;;;;;;;27.33;17.80;;;8.50;99.90;;;;;;5058728;28;20176;-72
2022/03/26 08:03:58;;;;;;;22.92;17.63;;;8.50;99.90;;;;;;5057642;28;20643;-72
2022/03/26 08:06:24;;;;;;;25.85;18.58;;;8.70;99.90;;;;;;5056474;28;20199;-71
2022/03/26 08:08:50;;;;;;;25.30;17.40;;;8.80;99.90;;;;;;5057925;28;20206;-72
2022/03/26 08:11:16;;;;;;;21.77;17.30;;;8.90;99.90;;;;;;5057291;28;20511;-72
2022/03/26 08:13:42;;;;;;;23.73;17.00;;;9.00;99.90;;;;;;5069318;28;20214;-72
2022/03/26 08:16:08;;;;;;;25.30;17.70;;;9.10;99.90;;;;;;5068416;28;20195;-72
2022/03/26 08:18:34;;;;;;;25.67;18.40;;;9.20;99.90;;;;;;5062994;28;20214;-72
2022/03/26 08:21:00;;;;;;;24.23;18.17;;;9.20;99.90;;;;;;5066277;28;20210;-72
2022/03/26 08:23:26;;;;;;;29.25;17.83;;;9.30;99.90;;;;;;5065480;28;20214;-73
2022/03/26 08:28:36;;;;;;;24.00;17.65;;;9.50;99.90;;;;;;5059657;28;20190;-72
2022/03/26 08:31:02;;;;;;;26.13;17.83;;;9.70;99.90;;;;;;5071388;28;20179;-72
2022/03/26 08:33:28;;;;;;;25.85;18.02;;;9.80;99.90;;;;;;5062269;28;20254;-72
2022/03/26 08:35:53;;;;;;;24.88;16.77;;;9.90;99.90;;;;;;5068249;28;20248;-72
2022/03/26 08:38:19;;;;;;;26.17;18.00;;;10.10;99.80;;;;;;5064568;28;20178;-72
2022/03/26 08:40:45;;;;;;;26.58;18.40;;;10.30;99.30;;;;;;5065488;28;20167;-73
2022/03/26 08:43:12;;;;;;;25.55;18.30;;;10.50;98.90;;;;;;5070617;28;21524;-73
2022/03/26 08:45:40;;;;;;;23.85;17.45;;;10.70;98.00;;;;;;5079558;28;20203;-73
2022/03/26 08:48:06;;;;;;;25.35;18.25;;;10.80;97.50;;;;;;5067874;28;20198;-73
2022/03/26 08:50:32;;;;;;;24.45;19.33;;;11.00;96.50;;;;;;5061274;28;20238;-72
2022/03/26 08:52:58;;;;;;;28.92;19.15;;;11.20;95.40;;;;;;5066189;28;20769;-72
2022/03/26 08:55:24;;;;;;;26.30;18.02;;;11.40;94.50;;;;;;5060987;28;20228;-71
2022/03/26 08:57:50;;;;;;;28.45;19.52;;;11.70;93.60;;;;;;5062837;28;20631;-72
2022/03/26 09:00:17;;;;;;;25.42;17.30;;;12.10;92.80;;;;;;5066705;28;20175;-71
2022/03/26 09:02:44;;;;;;;24.67;17.73;;;13.30;91.90;;;;;;5064088;28;20537;-70
2022/03/26 09:05:12;;;;;;;27.92;18.23;;;15.70;83.00;;;;;;5061385;28;20251;-72
2022/03/26 09:07:38;;;;;;;28.92;19.05;;;17.90;68.30;;;;;;5066281;28;20180;-72
2022/03/26 09:10:04;;;;;;;26.63;17.05;;;19.80;59.40;;;;;;5067451;28;20270;-71
2022/03/26 09:12:30;;;;;;;24.63;17.98;;;21.50;55.30;;;;;;5067958;28;20300;-71
2022/03/26 09:14:56;;;;;;;25.63;19.55;;;23.20;51.00;;;;;;5062753;28;20290;-72
2022/03/26 09:17:21;;;;;;;22.45;17.08;;;24.60;47.30;;;;;;5060436;28;20191;-72
2022/03/26 09:19:47;;;;;;;27.65;17.35;;;25.20;44.80;;;;;;5069623;28;20176;-72
2022/03/26 09:22:12;;;;;;;21.05;17.27;;;26.50;42.80;;;;;;5062938;28;20672;-74
2022/03/26 09:24:38;;;;;;;21.67;17.70;;;27.80;41.00;;;;;;5068086;28;20681;-72
2022/03/26 09:27:04;;;;;;;22.83;18.95;;;28.40;38.40;;;;;;5063572;28;20210;-73
2022/03/26 09:29:29;;;;;;;23.15;17.75;;;28.70;37.80;;;;;;5058623;28;20270;-74
2022/03/26 09:31:55;;;;;;;23.60;19.05;;;29.20;36.10;;;;;;5059995;28;20681;-74
2022/03/26 09:34:21;;;;;;;26.42;18.58;;;29.60;35.60;;;;;;5061195;28;20224;-74
2022/03/26 09:36:47;;;;;;;23.52;18.17;;;29.50;35.50;;;;;;5067379;28;20216;-74
2022/03/26 09:39:13;;;;;;;18.90;16.88;;;30.30;34.20;;;;;;5063015;28;20183;-74
2022/03/26 09:41:39;;;;;;;19.55;16.67;;;31.00;34.50;;;;;;5068524;28;20621;-74
2022/03/26 09:44:06;;;;;;;19.45;17.27;;;32.00;34.00;;;;;;5076667;28;20179;-74
2022/03/26 09:46:35;;;;;;;20.77;17.35;;;32.30;32.70;;;;;;5062623;28;20236;-73
2022/03/26 09:49:02;;;;;;;21.17;17.20;;;31.20;31.30;;;;;;5064829;28;20898;-72
2022/03/26 09:51:28;;;;;;;25.88;17.77;;;30.30;32.00;;;;;;5064407;28;20175;-72
2022/03/26 09:53:54;;;;;;;23.67;17.92;;;30.80;32.30;;;;;;5067205;28;20167;-73
2022/03/26 09:56:23;;;;;;;22.73;18.67;;;31.60;31.60;;;;;;5064515;28;20566;-74
2022/03/26 09:58:52;;;;;;;19.92;17.35;;;32.00;31.70;;;;;;5066799;28;20203;-74
2022/03/26 10:01:19;;;;;;;19.27;17.25;;;32.30;30.90;;;;;;5068562;28;20180;-72
2022/03/26 10:04:16;;;;;;;23.00;17.98;;;32.10;30.60;;;;;;5070969;28;20183;-72
2022/03/26 10:07:00;;;;;;;20.42;17.27;;;32.60;30.60;;;;;;5067663;28;20187;-71
2022/03/26 10:09:48;;;;;;;22.90;18.80;;;33.40;29.90;;;;;;5066444;28;20179;-70
2022/03/26 10:12:18;;;;;;;19.42;17.30;;;33.90;29.10;;;;;;5068257;28;20547;-72
2022/03/26 10:14:48;;;;;;;20.40;18.15;;;34.50;29.40;;;;;;5069023;28;20195;-70
2022/03/26 10:17:16;;;;;;;20.60;18.00;;;34.80;28.40;;;;;;5071312;28;20258;-73
2022/03/26 10:20:03;;;;;;;23.80;18.17;;;34.60;28.60;;;;;;5060132;28;20646;-72
2022/03/26 10:22:36;;;;;;;20.38;17.73;;;34.30;29.70;;;;;;5066785;28;20191;-72
2022/03/26 10:25:10;;;;;;;19.55;16.85;;;35.10;29.00;;;;;;5067932;28;20202;-73
2022/03/26 10:27:45;;;;;;;22.08;18.63;;;36.20;28.60;;;;;;5071600;28;20174;-74
2022/03/26 10:30:13;;;;;;;21.98;18.13;;;36.60;28.30;;;;;;5071093;28;20245;-74
2022/03/26 10:32:49;;;;;;;20.45;18.38;;;36.30;28.60;;;;;;5069658;28;20684;-72
2022/03/26 10:35:19;;;;;;;24.70;18.65;;;35.40;28.10;;;;;;5079731;28;20284;-71
2022/03/26 10:37:46;;;;;;;21.10;18.77;;;34.90;28.60;;;;;;5071494;28;20192;-71
2022/03/26 10:40:20;;;;;;;22.52;18.77;;;35.70;28.10;;;;;;5073904;28;20186;-71
2022/03/26 10:42:52;;;;;;;21.90;18.70;;;35.20;28.90;;;;;;5068915;28;20177;-71
2022/03/26 10:45:18;;;;;;;21.52;18.85;;;34.80;28.00;;;;;;5064953;28;20199;-71
2022/03/26 10:47:44;;;;;;;23.48;19.48;;;34.50;28.30;;;;;;5069487;28;20190;-72
2022/03/26 10:50:14;;;;;;;20.38;18.27;;;34.20;28.70;;;;;;5073962;28;20205;-72
2022/03/26 10:52:39;;;;;;;20.80;17.60;;;35.20;28.10;;;;;;5066682;28;20238;-72
2022/03/26 10:55:13;;;;;;;20.67;18.50;;;36.30;26.80;;;;;;5066364;28;20222;-72
2022/03/26 10:57:39;;;;;;;19.45;17.35;;;36.70;26.30;;;;;;5062880;28;20183;-73
2022/03/26 11:00:05;;;;;;;20.63;17.92;;;36.10;26.40;;;;;;5068649;28;20187;-72
2022/03/26 11:02:31;;;;;;;19.23;16.98;;;35.50;26.50;;;;;;5070579;28;20182;-72
2022/03/26 11:04:57;;;;;;;18.25;16.33;;;34.90;26.30;;;;;;5070892;28;20225;-74
2022/03/26 11:07:23;;;;;;;20.98;18.77;;;34.50;26.50;;;;;;5064476;28;20179;-72
2022/03/26 11:09:49;;;;;;;18.48;16.63;;;34.50;26.70;;;;;;5068717;28;20170;-72
2022/03/26 11:12:17;;;;;;;20.13;18.05;;;34.70;27.70;;;;;;5062767;28;20570;-73
2022/03/26 11:14:46;;;;;;;19.25;16.92;;;34.80;28.10;;;;;;5071612;28;20197;-72
2022/03/26 11:17:30;;;;;;;24.23;18.15;;;35.50;27.30;;;;;;5063345;28;20183;-72
2022/03/26 11:20:33;;;;;;;22.30;18.30;;;35.70;27.10;;;;;;5066978;28;20175;-72
2022/03/26 11:23:25;;;;;;;18.73;16.80;;;34.90;27.00;;;;;;5068881;28;20610;-72
2022/03/26 11:26:09;;;;;;;19.48;16.63;;;35.60;26.30;;;;;;5063927;28;20214;-71
2022/03/26 11:28:36;;;;;;;17.63;15.82;;;35.20;26.50;;;;;;5081972;28;20202;-72
2022/03/26 11:31:23;;;;;;;18.13;16.13;;;35.60;26.60;;;;;;5082509;28;20194;-72
2022/03/26 11:33:49;;;;;;;17.30;15.50;;;36.60;26.10;;;;;;5067798;28;20194;-71
2022/03/26 11:36:18;;;;;;;18.80;16.83;;;37.10;24.40;;;;;;5070046;28;20195;-71
2022/03/26 11:38:55;;;;;;;16.60;14.98;;;36.40;25.40;;;;;;5070807;28;20229;-71
2022/03/26 11:41:31;;;;;;;18.52;15.50;;;35.80;25.80;;;;;;5059531;28;20270;-71
2022/03/26 11:43:58;;;;;;;16.67;14.57;;;35.70;25.70;;;;;;5071919;28;20250;-71
2022/03/26 11:52:14;;;;;;;17.75;15.77;;;37.20;24.70;;;;;;5067414;28;20762;-71
2022/03/26 11:54:39;;;;;;;16.88;15.10;;;35.90;26.00;;;;;;5067848;28;20202;-71
2022/03/26 11:57:14;;;;;;;17.42;14.80;;;36.00;25.40;;;;;;5057524;28;20174;-71
2022/03/26 11:59:41;;;;;;;20.70;14.60;;;36.00;26.30;;;;;;5063020;28;20182;-71
2022/03/26 12:02:18;;;;;;;15.88;14.23;;;36.10;26.30;;;;;;5069557;28;20176;-72
2022/03/26 12:04:59;;;;;;;17.33;15.40;;;35.90;25.50;;;;;;5065796;28;20746;-70
2022/03/26 12:07:28;;;;;;;17.38;13.07;;;35.70;26.40;;;;;;5066456;28;20182;-70
2022/03/26 12:10:17;;;;;;;17.27;14.35;;;36.70;26.60;;;;;;5061937;28;20191;-69
2022/03/26 12:13:16;;;;;;;16.08;14.45;;;36.60;25.90;;;;;;5067480;28;20202;-68
2022/03/26 12:15:58;;;;;;;14.82;13.32;;;36.00;25.20;;;;;;5064461;28;20210;-69
2022/03/26 12:18:35;;;;;;;15.80;14.30;;;35.60;26.60;;;;;;5067313;28;20296;-69
2022/03/26 12:21:23;;;;;;;14.95;12.85;;;35.40;25.30;;;;;;5073859;28;20178;-69
2022/03/26 12:23:49;;;;;;;15.60;13.20;;;35.60;26.20;;;;;;5068312;28;20208;-69
2022/03/26 12:26:15;;;;;;;13.60;12.38;;;36.00;25.60;;;;;;5064542;28;20219;-69
2022/03/26 12:28:42;;;;;;;14.68;11.70;;;35.20;26.30;;;;;;5060220;28;20179;-70
2022/03/26 12:31:13;;;;;;;13.98;12.40;;;35.20;25.80;;;;;;5081291;28;20183;-73
2022/03/26 12:33:44;;;;;;;16.25;13.20;;;35.40;25.10;;;;;;5067818;28;20213;-72
2022/03/26 12:36:11;;;;;;;12.60;11.27;;;35.40;26.20;;;;;;5069435;28;20748;-72
2022/03/26 12:38:37;;;;;;;13.30;11.98;;;36.10;25.70;;;;;;5073493;28;20191;-71
2022/03/26 12:41:06;;;;;;;13.82;11.07;;;35.20;25.40;;;;;;5064825;28;20183;-73
2022/03/26 12:43:32;;;;;;;13.13;10.98;;;34.30;25.50;;;;;;5060186;28;20187;-72